sensor_id;sensor_type;location;lat;lon;timestamp;pressure;altitude;pressure_sealevel;temperature;humidity
60055;BME280;45930;53.514;55.904;2023-04-05T00:00:52;49130.00;;;-149.77;55.09
60055;BME280;45930;53.514;55.904;2023-04-05T00:01:53;49187.44;;;-149.77;54.36
60055;BME280;45930;53.514;55.904;2023-04-05T00:02:56;49145.84;;;-149.77;54.80
60055;BME280;45930;53.514;55.904;2023-04-05T00:03:59;49151.78;;;-149.77;54.75
60055;BME280;45930;53.514;55.904;2023-04-05T00:05:02;49167.63;;;-149.77;53.99
60055;BME280;45930;53.514;55.904;2023-04-05T00:06:04;49139.91;;;-149.77;53.84
60055;BME280;45930;53.514;55.904;2023-04-05T00:07:05;49133.94;;;-149.77;54.49
60055;BME280;45930;53.514;55.904;2023-04-05T00:08:07;49126.03;;;-149.77;54.49
60055;BME280;45930;53.514;55.904;2023-04-05T00:09:12;49163.66;;;-149.77;55.05
60055;BME280;45930;53.514;55.904;2023-04-05T00:10:13;49133.94;;;-149.77;55.17
60055;BME280;45930;53.514;55.904;2023-04-05T00:11:17;49124.03;;;-149.77;54.93
60055;BME280;45930;53.514;55.904;2023-04-05T00:12:18;49153.75;;;-149.77;54.98
60055;BME280;45930;53.514;55.904;2023-04-05T00:13:19;49135.94;;;-149.77;55.46
60055;BME280;45930;53.514;55.904;2023-04-05T00:14:21;49143.84;;;-149.77;55.28
60055;BME280;45930;53.514;55.904;2023-04-05T00:15:22;49120.09;;;-149.77;55.93
60055;BME280;45930;53.514;55.904;2023-04-05T00:16:23;49155.75;;;-149.77;55.87
60055;BME280;45930;53.514;55.904;2023-04-05T00:17:23;49139.91;;;-149.77;55.82
60055;BME280;45930;53.514;55.904;2023-04-05T00:18:25;49151.78;;;-149.77;55.41
60055;BME280;45930;53.514;55.904;2023-04-05T00:19:26;49131.97;;;-149.77;55.38
60055;BME280;45930;53.514;55.904;2023-04-05T00:20:26;49151.78;;;-149.77;55.50
60055;BME280;45930;53.514;55.904;2023-04-05T00:21:28;49141.88;;;-149.77;55.16
60055;BME280;45930;53.514;55.904;2023-04-05T00:22:29;49131.97;;;-149.77;55.13
60055;BME280;45930;53.514;55.904;2023-04-05T00:23:31;49153.75;;;-149.77;55.18
60055;BME280;45930;53.514;55.904;2023-04-05T00:24:37;49161.69;;;-149.77;54.88
60055;BME280;45930;53.514;55.904;2023-04-05T00:25:42;49147.81;;;-149.77;55.06
60055;BME280;45930;53.514;55.904;2023-04-05T00:26:43;49141.88;;;-149.77;53.78
60055;BME280;45930;53.514;55.904;2023-04-05T00:27:44;49149.78;;;-149.77;52.70
60055;BME280;45930;53.514;55.904;2023-04-05T00:28:46;49143.84;;;-149.77;52.53
60055;BME280;45930;53.514;55.904;2023-04-05T00:29:47;49143.84;;;-149.77;52.68
60055;BME280;45930;53.514;55.904;2023-04-05T00:30:51;49153.75;;;-149.77;53.09
60055;BME280;45930;53.514;55.904;2023-04-05T00:31:51;49145.84;;;-149.77;53.05
60055;BME280;45930;53.514;55.904;2023-04-05T00:32:52;49141.88;;;-149.77;53.02
60055;BME280;45930;53.514;55.904;2023-04-05T00:33:53;49141.88;;;-149.77;53.55
60055;BME280;45930;53.514;55.904;2023-04-05T00:34:54;49197.34;;;-149.77;53.79
60055;BME280;45930;53.514;55.904;2023-04-05T00:35:54;49126.03;;;-149.77;54.96
60055;BME280;45930;53.514;55.904;2023-04-05T00:36:55;49167.63;;;-149.77;56.40
60055;BME280;45930;53.514;55.904;2023-04-05T00:37:56;49163.66;;;-149.77;56.90
60055;BME280;45930;53.514;55.904;2023-04-05T00:38:57;49145.84;;;-149.77;58.57
60055;BME280;45930;53.514;55.904;2023-04-05T00:39:57;49112.16;;;-149.77;59.38
60055;BME280;45930;53.514;55.904;2023-04-05T00:40:58;49139.91;;;-149.77;60.22
60055;BME280;45930;53.514;55.904;2023-04-05T00:42:02;49147.81;;;-149.77;61.22
60055;BME280;45930;53.514;55.904;2023-04-05T00:43:03;49143.84;;;-149.77;61.56
60055;BME280;45930;53.514;55.904;2023-04-05T00:44:05;49153.75;;;-149.77;61.63
60055;BME280;45930;53.514;55.904;2023-04-05T00:45:07;49157.72;;;-149.77;61.46
60055;BME280;45930;53.514;55.904;2023-04-05T00:46:08;49167.63;;;-149.77;61.36
60055;BME280;45930;53.514;55.904;2023-04-05T00:47:09;49153.75;;;-149.77;61.57
60055;BME280;45930;53.514;55.904;2023-04-05T00:48:10;49147.81;;;-149.77;61.76
60055;BME280;45930;53.514;55.904;2023-04-05T00:49:11;49135.94;;;-149.77;62.67
60055;BME280;45930;53.514;55.904;2023-04-05T00:50:12;49137.91;;;-149.77;63.36
60055;BME280;45930;53.514;55.904;2023-04-05T00:51:15;49145.84;;;-149.77;63.76
60055;BME280;45930;53.514;55.904;2023-04-05T00:52:17;49131.97;;;-149.77;63.80
60055;BME280;45930;53.514;55.904;2023-04-05T00:53:19;49155.75;;;-149.77;63.83
60055;BME280;45930;53.514;55.904;2023-04-05T00:54:21;49139.91;;;-149.77;63.80
60055;BME280;45930;53.514;55.904;2023-04-05T00:55:22;49155.75;;;-149.77;63.56
60055;BME280;45930;53.514;55.904;2023-04-05T00:56:23;49151.78;;;-149.77;63.55
60055;BME280;45930;53.514;55.904;2023-04-05T00:57:24;49155.75;;;-149.77;63.01
60055;BME280;45930;53.514;55.904;2023-04-05T00:58:25;49137.91;;;-149.77;63.17
60055;BME280;45930;53.514;55.904;2023-04-05T00:59:27;49155.75;;;-149.77;63.83
60055;BME280;45930;53.514;55.904;2023-04-05T01:00:30;49155.75;;;-149.77;64.04
60055;BME280;45930;53.514;55.904;2023-04-05T01:01:31;49147.81;;;-149.77;63.41
60055;BME280;45930;53.514;55.904;2023-04-05T01:02:43;49155.75;;;-149.77;62.37
60055;BME280;45930;53.514;55.904;2023-04-05T01:03:59;49135.94;;;-149.77;61.78
60055;BME280;45930;53.514;55.904;2023-04-05T01:05:05;49141.88;;;-149.77;61.45
60055;BME280;45930;53.514;55.904;2023-04-05T01:07:30;49133.94;;;-149.77;61.19
60055;BME280;45930;53.514;55.904;2023-04-05T01:10:43;49143.84;;;-149.77;59.70
60055;BME280;45930;53.514;55.904;2023-04-05T01:11:47;49143.84;;;-149.77;59.11
60055;BME280;45930;53.514;55.904;2023-04-05T01:12:49;49169.59;;;-149.77;58.75
60055;BME280;45930;53.514;55.904;2023-04-05T01:13:57;49151.78;;;-149.77;58.36
60055;BME280;45930;53.514;55.904;2023-04-05T01:14:59;49155.75;;;-149.77;58.42
60055;BME280;45930;53.514;55.904;2023-04-05T01:16:00;49147.81;;;-149.77;59.06
60055;BME280;45930;53.514;55.904;2023-04-05T01:17:01;49145.84;;;-149.77;59.77
60055;BME280;45930;53.514;55.904;2023-04-05T01:18:02;49145.84;;;-149.77;61.16
60055;BME280;45930;53.514;55.904;2023-04-05T01:19:03;49157.72;;;-149.77;61.66
60055;BME280;45930;53.514;55.904;2023-04-05T01:20:07;49135.94;;;-149.77;62.30
60055;BME280;45930;53.514;55.904;2023-04-05T01:30:51;49171.59;;;-149.77;62.02
60055;BME280;45930;53.514;55.904;2023-04-05T01:33:29;49157.72;;;-149.77;62.79
60055;BME280;45930;53.514;55.904;2023-04-05T01:34:51;49169.59;;;-149.77;63.48
60055;BME280;45930;53.514;55.904;2023-04-05T01:37:14;49143.84;;;-149.77;64.10
60055;BME280;45930;53.514;55.904;2023-04-05T01:38:23;49161.69;;;-149.77;64.51
60055;BME280;45930;53.514;55.904;2023-04-05T01:39:28;49130.00;;;-149.77;64.66
60055;BME280;45930;53.514;55.904;2023-04-05T01:40:31;49147.81;;;-149.77;64.71
60055;BME280;45930;53.514;55.904;2023-04-05T01:41:33;49135.94;;;-149.77;64.67
60055;BME280;45930;53.514;55.904;2023-04-05T01:42:34;49139.91;;;-149.77;64.85
60055;BME280;45930;53.514;55.904;2023-04-05T01:43:35;49139.91;;;-149.77;64.98
60055;BME280;45930;53.514;55.904;2023-04-05T01:44:36;49139.91;;;-149.77;64.87
60055;BME280;45930;53.514;55.904;2023-04-05T01:45:36;49137.91;;;-149.77;64.95
60055;BME280;45930;53.514;55.904;2023-04-05T01:46:37;49126.03;;;-149.77;64.88
60055;BME280;45930;53.514;55.904;2023-04-05T01:47:38;49157.72;;;-149.77;64.86
60055;BME280;45930;53.514;55.904;2023-04-05T01:48:39;49120.09;;;-149.77;64.88
60055;BME280;45930;53.514;55.904;2023-04-05T01:49:39;49133.94;;;-149.77;65.46
60055;BME280;45930;53.514;55.904;2023-04-05T01:50:40;49141.88;;;-149.77;64.41
60055;BME280;45930;53.514;55.904;2023-04-05T01:51:41;49153.75;;;-149.77;62.12
60055;BME280;45930;53.514;55.904;2023-04-05T01:52:42;49139.91;;;-149.77;60.39
60055;BME280;45930;53.514;55.904;2023-04-05T01:53:42;49175.53;;;-149.77;60.57
60055;BME280;45930;53.514;55.904;2023-04-05T01:54:43;49139.91;;;-149.77;61.07
60055;BME280;45930;53.514;55.904;2023-04-05T01:55:45;49135.94;;;-149.77;62.10
60055;BME280;45930;53.514;55.904;2023-04-05T01:56:46;49155.75;;;-149.77;63.14
60055;BME280;45930;53.514;55.904;2023-04-05T01:57:47;49131.97;;;-149.77;63.80
60055;BME280;45930;53.514;55.904;2023-04-05T01:58:47;49159.69;;;-149.77;63.39
60055;BME280;45930;53.514;55.904;2023-04-05T01:59:48;49159.69;;;-149.77;63.13
60055;BME280;45930;53.514;55.904;2023-04-05T02:00:53;49153.75;;;-149.77;63.03
60055;BME280;45930;53.514;55.904;2023-04-05T02:01:54;49112.16;;;-149.77;62.96
60055;BME280;45930;53.514;55.904;2023-04-05T02:02:55;49145.84;;;-149.77;62.58
60055;BME280;45930;53.514;55.904;2023-04-05T02:03:55;49149.78;;;-149.77;62.59
60055;BME280;45930;53.514;55.904;2023-04-05T02:04:56;49141.88;;;-149.77;62.76
60055;BME280;45930;53.514;55.904;2023-04-05T02:05:57;49131.97;;;-149.77;63.31
60055;BME280;45930;53.514;55.904;2023-04-05T02:06:58;49165.63;;;-149.77;62.95
60055;BME280;45930;53.514;55.904;2023-04-05T02:07:58;49159.69;;;-149.77;63.30
60055;BME280;45930;53.514;55.904;2023-04-05T02:08:59;49161.69;;;-149.77;63.61
60055;BME280;45930;53.514;55.904;2023-04-05T02:10:00;49141.88;;;-149.77;63.66
60055;BME280;45930;53.514;55.904;2023-04-05T02:11:00;49147.81;;;-149.77;63.59
60055;BME280;45930;53.514;55.904;2023-04-05T02:12:01;49143.84;;;-149.77;63.72
60055;BME280;45930;53.514;55.904;2023-04-05T02:13:02;49163.66;;;-149.77;63.80
60055;BME280;45930;53.514;55.904;2023-04-05T02:14:03;49124.03;;;-149.77;64.76
60055;BME280;45930;53.514;55.904;2023-04-05T02:15:04;49145.84;;;-149.77;65.33
60055;BME280;45930;53.514;55.904;2023-04-05T02:16:06;49155.75;;;-149.77;65.48
60055;BME280;45930;53.514;55.904;2023-04-05T02:17:06;49147.81;;;-149.77;65.56
60055;BME280;45930;53.514;55.904;2023-04-05T02:18:07;49139.91;;;-149.77;66.31
60055;BME280;45930;53.514;55.904;2023-04-05T02:19:08;49141.88;;;-149.77;66.80
60055;BME280;45930;53.514;55.904;2023-04-05T02:20:10;49130.00;;;-149.77;67.24
60055;BME280;45930;53.514;55.904;2023-04-05T02:21:12;49139.91;;;-149.77;67.14
60055;BME280;45930;53.514;55.904;2023-04-05T02:22:16;49135.94;;;-149.77;67.51
60055;BME280;45930;53.514;55.904;2023-04-05T02:23:18;49110.19;;;-149.77;67.56
60055;BME280;45930;53.514;55.904;2023-04-05T02:24:19;49122.06;;;-149.77;67.33
60055;BME280;45930;53.514;55.904;2023-04-05T02:25:21;49126.03;;;-149.77;67.40
60055;BME280;45930;53.514;55.904;2023-04-05T02:26:22;49139.91;;;-149.77;67.44
60055;BME280;45930;53.514;55.904;2023-04-05T02:27:23;49143.84;;;-149.77;67.48
60055;BME280;45930;53.514;55.904;2023-04-05T02:28:24;49147.81;;;-149.77;67.55
60055;BME280;45930;53.514;55.904;2023-04-05T02:29:25;49126.03;;;-149.77;67.27
60055;BME280;45930;53.514;55.904;2023-04-05T02:30:26;49114.16;;;-149.77;67.26
60055;BME280;45930;53.514;55.904;2023-04-05T02:31:28;49120.09;;;-149.77;67.15
60055;BME280;45930;53.514;55.904;2023-04-05T02:32:29;49130.00;;;-149.77;67.11
60055;BME280;45930;53.514;55.904;2023-04-05T02:33:31;49100.28;;;-149.77;66.70
60055;BME280;45930;53.514;55.904;2023-04-05T02:34:32;49108.19;;;-149.77;67.03
60055;BME280;45930;53.514;55.904;2023-04-05T02:35:32;49128.00;;;-149.77;66.84
60055;BME280;45930;53.514;55.904;2023-04-05T02:36:33;49143.84;;;-149.77;67.58
60055;BME280;45930;53.514;55.904;2023-04-05T02:37:34;49128.00;;;-149.77;67.07
60055;BME280;45930;53.514;55.904;2023-04-05T02:38:35;49120.09;;;-149.77;67.18
60055;BME280;45930;53.514;55.904;2023-04-05T02:39:36;49128.00;;;-149.77;67.37
60055;BME280;45930;53.514;55.904;2023-04-05T02:40:37;49133.94;;;-149.77;68.06
60055;BME280;45930;53.514;55.904;2023-04-05T02:41:41;49131.97;;;-149.77;68.93
60055;BME280;45930;53.514;55.904;2023-04-05T02:42:42;49114.16;;;-149.77;69.26
60055;BME280;45930;53.514;55.904;2023-04-05T02:43:42;49102.25;;;-149.77;69.79
60055;BME280;45930;53.514;55.904;2023-04-05T02:44:43;49135.94;;;-149.77;70.43
60055;BME280;45930;53.514;55.904;2023-04-05T02:45:44;49092.34;;;-149.77;70.86
60055;BME280;45930;53.514;55.904;2023-04-05T02:46:45;49100.28;;;-149.77;70.48
60055;BME280;45930;53.514;55.904;2023-04-05T02:47:46;49106.22;;;-149.77;70.49
60055;BME280;45930;53.514;55.904;2023-04-05T02:48:47;49112.16;;;-149.77;70.49
60055;BME280;45930;53.514;55.904;2023-04-05T02:49:47;49118.09;;;-149.77;70.89
60055;BME280;45930;53.514;55.904;2023-04-05T02:50:49;49100.28;;;-149.77;70.43
60055;BME280;45930;53.514;55.904;2023-04-05T02:51:50;49106.22;;;-149.77;70.56
60055;BME280;45930;53.514;55.904;2023-04-05T02:52:52;49126.03;;;-149.77;70.33
60055;BME280;45930;53.514;55.904;2023-04-05T02:53:53;49092.34;;;-149.77;70.06
60055;BME280;45930;53.514;55.904;2023-04-05T02:54:54;49100.28;;;-149.77;69.68
60055;BME280;45930;53.514;55.904;2023-04-05T02:55:55;49112.16;;;-149.77;68.87
60055;BME280;45930;53.514;55.904;2023-04-05T02:56:56;49118.09;;;-149.77;69.43
60055;BME280;45930;53.514;55.904;2023-04-05T02:58:00;49100.28;;;-149.77;69.44
60055;BME280;45930;53.514;55.904;2023-04-05T02:59:01;49112.16;;;-149.77;69.88
60055;BME280;45930;53.514;55.904;2023-04-05T03:00:04;49116.13;;;-149.77;70.17
60055;BME280;45930;53.514;55.904;2023-04-05T03:01:06;49102.25;;;-149.77;70.29
60055;BME280;45930;53.514;55.904;2023-04-05T03:02:08;49074.53;;;-149.77;70.31
60055;BME280;45930;53.514;55.904;2023-04-05T03:03:10;49122.06;;;-149.77;69.51
60055;BME280;45930;53.514;55.904;2023-04-05T03:04:11;49102.25;;;-149.77;69.02
60055;BME280;45930;53.514;55.904;2023-04-05T03:05:11;49102.25;;;-149.77;68.30
60055;BME280;45930;53.514;55.904;2023-04-05T03:06:13;49076.50;;;-149.77;67.69
60055;BME280;45930;53.514;55.904;2023-04-05T03:07:14;49068.59;;;-149.77;67.29
60055;BME280;45930;53.514;55.904;2023-04-05T03:08:17;49084.44;;;-149.77;67.54
60055;BME280;45930;53.514;55.904;2023-04-05T03:09:19;49102.25;;;-149.77;68.07
60055;BME280;45930;53.514;55.904;2023-04-05T03:10:20;49096.31;;;-149.77;67.56
60055;BME280;45930;53.514;55.904;2023-04-05T03:11:25;49108.19;;;-149.77;67.51
60055;BME280;45930;53.514;55.904;2023-04-05T03:12:26;49108.19;;;-149.77;67.11
60055;BME280;45930;53.514;55.904;2023-04-05T03:13:27;49104.25;;;-149.77;66.72
60055;BME280;45930;53.514;55.904;2023-04-05T03:14:31;49092.34;;;-149.77;66.68
60055;BME280;45930;53.514;55.904;2023-04-05T03:15:31;49086.41;;;-149.77;66.41
60055;BME280;45930;53.514;55.904;2023-04-05T03:16:32;49088.41;;;-149.77;65.68
60055;BME280;45930;53.514;55.904;2023-04-05T03:17:33;49090.38;;;-149.77;65.18
60055;BME280;45930;53.514;55.904;2023-04-05T03:18:34;49090.38;;;-149.77;64.64
60055;BME280;45930;53.514;55.904;2023-04-05T03:19:35;49070.56;;;-149.77;64.37
60055;BME280;45930;53.514;55.904;2023-04-05T03:20:36;49118.09;;;-149.77;63.54
60055;BME280;45930;53.514;55.904;2023-04-05T03:21:40;49090.38;;;-149.77;63.33
60055;BME280;45930;53.514;55.904;2023-04-05T03:22:41;49088.41;;;-149.77;63.07
60055;BME280;45930;53.514;55.904;2023-04-05T03:23:42;49088.41;;;-149.77;63.08
60055;BME280;45930;53.514;55.904;2023-04-05T03:24:45;49060.66;;;-149.77;63.15
60055;BME280;45930;53.514;55.904;2023-04-05T03:25:47;49102.25;;;-149.77;62.52
60055;BME280;45930;53.514;55.904;2023-04-05T03:26:47;49096.31;;;-149.77;62.77
60055;BME280;45930;53.514;55.904;2023-04-05T03:27:48;49094.34;;;-149.77;63.31
60055;BME280;45930;53.514;55.904;2023-04-05T03:28:52;49094.34;;;-149.77;63.28
60055;BME280;45930;53.514;55.904;2023-04-05T03:29:53;49086.41;;;-149.77;63.63
60055;BME280;45930;53.514;55.904;2023-04-05T03:30:53;49096.31;;;-149.77;64.39
60055;BME280;45930;53.514;55.904;2023-04-05T03:31:56;49098.28;;;-149.77;64.62
60055;BME280;45930;53.514;55.904;2023-04-05T03:32:58;49064.63;;;-149.77;64.84
60055;BME280;45930;53.514;55.904;2023-04-05T03:34:00;49096.31;;;-149.77;64.97
60055;BME280;45930;53.514;55.904;2023-04-05T03:35:01;49068.59;;;-149.77;64.68
60055;BME280;45930;53.514;55.904;2023-04-05T03:36:04;49086.41;;;-149.77;64.25
60055;BME280;45930;53.514;55.904;2023-04-05T03:37:05;49084.44;;;-149.77;64.42
60055;BME280;45930;53.514;55.904;2023-04-05T03:38:06;49094.34;;;-149.77;63.88
60055;BME280;45930;53.514;55.904;2023-04-05T03:39:08;49114.16;;;-149.77;63.74
60055;BME280;45930;53.514;55.904;2023-04-05T03:40:10;49080.47;;;-149.77;63.16
60055;BME280;45930;53.514;55.904;2023-04-05T03:41:12;49070.56;;;-149.77;62.40
60055;BME280;45930;53.514;55.904;2023-04-05T03:42:13;49100.28;;;-149.77;61.93
60055;BME280;45930;53.514;55.904;2023-04-05T03:43:15;49074.53;;;-149.77;60.94
60055;BME280;45930;53.514;55.904;2023-04-05T03:44:16;49072.53;;;-149.77;60.54
60055;BME280;45930;53.514;55.904;2023-04-05T03:45:17;49084.44;;;-149.77;60.54
60055;BME280;45930;53.514;55.904;2023-04-05T03:46:18;49062.66;;;-149.77;60.31
60055;BME280;45930;53.514;55.904;2023-04-05T03:47:19;49092.34;;;-149.77;60.03
60055;BME280;45930;53.514;55.904;2023-04-05T03:48:20;49092.34;;;-149.77;59.61
60055;BME280;45930;53.514;55.904;2023-04-05T03:49:21;49080.47;;;-149.77;59.53
60055;BME280;45930;53.514;55.904;2023-04-05T03:50:22;49068.59;;;-149.77;59.09
60055;BME280;45930;53.514;55.904;2023-04-05T03:51:23;49058.69;;;-149.77;58.72
60055;BME280;45930;53.514;55.904;2023-04-05T03:52:24;49058.69;;;-149.77;58.67
60055;BME280;45930;53.514;55.904;2023-04-05T03:53:25;49046.78;;;-149.77;58.73
60055;BME280;45930;53.514;55.904;2023-04-05T03:54:25;49068.59;;;-149.77;58.48
60055;BME280;45930;53.514;55.904;2023-04-05T03:55:26;49050.75;;;-149.77;58.15
60055;BME280;45930;53.514;55.904;2023-04-05T03:56:27;49056.69;;;-149.77;57.81
60055;BME280;45930;53.514;55.904;2023-04-05T03:57:28;49072.53;;;-149.77;57.52
60055;BME280;45930;53.514;55.904;2023-04-05T03:58:29;49044.81;;;-149.77;57.18
60055;BME280;45930;53.514;55.904;2023-04-05T03:59:30;49076.50;;;-149.77;56.83
60055;BME280;45930;53.514;55.904;2023-04-05T04:00:31;49056.69;;;-149.77;56.47
60055;BME280;45930;53.514;55.904;2023-04-05T04:01:32;49064.63;;;-149.77;56.32
60055;BME280;45930;53.514;55.904;2023-04-05T04:02:32;49072.53;;;-149.77;55.93
60055;BME280;45930;53.514;55.904;2023-04-05T04:03:33;49038.88;;;-149.77;55.55
60055;BME280;45930;53.514;55.904;2023-04-05T04:04:36;49034.91;;;-149.77;55.61
60055;BME280;45930;53.514;55.904;2023-04-05T04:05:37;49066.59;;;-149.77;55.36
60055;BME280;45930;53.514;55.904;2023-04-05T04:06:38;49052.75;;;-149.77;55.31
60055;BME280;45930;53.514;55.904;2023-04-05T04:07:39;49060.66;;;-149.77;54.83
60055;BME280;45930;53.514;55.904;2023-04-05T04:08:41;49032.94;;;-149.77;54.56
60055;BME280;45930;53.514;55.904;2023-04-05T04:09:41;49062.66;;;-149.77;53.39
60055;BME280;45930;53.514;55.904;2023-04-05T04:10:42;49056.69;;;-149.77;52.97
60055;BME280;45930;53.514;55.904;2023-04-05T04:11:43;49032.94;;;-149.77;52.82
60055;BME280;45930;53.514;55.904;2023-04-05T04:12:44;49048.78;;;-149.77;52.62
60055;BME280;45930;53.514;55.904;2023-04-05T04:13:45;49048.78;;;-149.77;52.36
60055;BME280;45930;53.514;55.904;2023-04-05T04:14:46;49062.66;;;-149.77;51.45
60055;BME280;45930;53.514;55.904;2023-04-05T04:15:46;49046.78;;;-149.77;51.11
60055;BME280;45930;53.514;55.904;2023-04-05T04:16:47;49070.56;;;-149.77;50.78
60055;BME280;45930;53.514;55.904;2023-04-05T04:17:48;49021.06;;;-149.77;50.93
60055;BME280;45930;53.514;55.904;2023-04-05T04:18:49;49064.63;;;-149.77;50.44
60055;BME280;45930;53.514;55.904;2023-04-05T04:19:54;49048.78;;;-149.77;50.10
60055;BME280;45930;53.514;55.904;2023-04-05T04:20:55;49060.66;;;-149.77;49.76
60055;BME280;45930;53.514;55.904;2023-04-05T04:21:56;49040.84;;;-149.77;49.54
60055;BME280;45930;53.514;55.904;2023-04-05T04:22:58;49001.25;;;-149.77;49.31
60055;BME280;45930;53.514;55.904;2023-04-05T04:23:59;49082.44;;;-149.77;48.87
60055;BME280;45930;53.514;55.904;2023-04-05T04:25:00;49023.03;;;-149.77;48.69
60055;BME280;45930;53.514;55.904;2023-04-05T04:26:04;49030.94;;;-149.77;48.42
60055;BME280;45930;53.514;55.904;2023-04-05T04:27:05;49050.75;;;-149.77;48.14
60055;BME280;45930;53.514;55.904;2023-04-05T04:28:06;49046.78;;;-149.77;47.92
60055;BME280;45930;53.514;55.904;2023-04-05T04:29:07;49017.09;;;-149.77;47.78
60055;BME280;45930;53.514;55.904;2023-04-05T04:30:10;49025.00;;;-149.77;47.81
60055;BME280;45930;53.514;55.904;2023-04-05T04:31:11;49040.84;;;-149.77;47.61
60055;BME280;45930;53.514;55.904;2023-04-05T04:32:14;49015.09;;;-149.77;47.16
60055;BME280;45930;53.514;55.904;2023-04-05T04:33:15;49013.13;;;-149.77;47.16
60055;BME280;45930;53.514;55.904;2023-04-05T04:34:16;49052.75;;;-149.77;46.98
60055;BME280;45930;53.514;55.904;2023-04-05T04:35:20;49015.09;;;-149.77;46.70
60055;BME280;45930;53.514;55.904;2023-04-05T04:36:24;49044.81;;;-149.77;45.97
60055;BME280;45930;53.514;55.904;2023-04-05T04:37:38;49028.97;;;-149.77;46.13
60055;BME280;45930;53.514;55.904;2023-04-05T04:38:46;49005.19;;;-149.77;45.83
60055;BME280;45930;53.514;55.904;2023-04-05T04:39:47;49009.16;;;-149.77;45.71
60055;BME280;45930;53.514;55.904;2023-04-05T04:40:48;49011.16;;;-149.77;45.41
60055;BME280;45930;53.514;55.904;2023-04-05T04:41:53;49019.06;;;-149.77;45.08
60055;BME280;45930;53.514;55.904;2023-04-05T04:42:54;48989.34;;;-149.77;44.98
60055;BME280;45930;53.514;55.904;2023-04-05T04:43:58;49036.91;;;-149.77;44.99
60055;BME280;45930;53.514;55.904;2023-04-05T04:45:02;49013.13;;;-149.77;44.91
60055;BME280;45930;53.514;55.904;2023-04-05T04:46:04;49019.06;;;-149.77;44.76
60055;BME280;45930;53.514;55.904;2023-04-05T04:47:10;49009.16;;;-149.77;44.59
60055;BME280;45930;53.514;55.904;2023-04-05T04:48:16;49003.22;;;-149.77;44.24
60055;BME280;45930;53.514;55.904;2023-04-05T04:49:17;49009.16;;;-149.77;43.60
60055;BME280;45930;53.514;55.904;2023-04-05T04:50:21;49011.16;;;-149.77;43.38
60055;BME280;45930;53.514;55.904;2023-04-05T04:51:22;49044.81;;;-149.77;43.09
60055;BME280;45930;53.514;55.904;2023-04-05T04:52:23;49017.09;;;-149.77;42.93
60055;BME280;45930;53.514;55.904;2023-04-05T04:53:23;49013.13;;;-149.77;42.78
60055;BME280;45930;53.514;55.904;2023-04-05T04:54:24;49032.94;;;-149.77;42.51
60055;BME280;45930;53.514;55.904;2023-04-05T04:55:25;49034.91;;;-149.77;42.25
60055;BME280;45930;53.514;55.904;2023-04-05T04:56:27;48975.50;;;-149.77;42.17
60055;BME280;45930;53.514;55.904;2023-04-05T04:57:28;49013.13;;;-149.77;42.07
60055;BME280;45930;53.514;55.904;2023-04-05T04:58:29;49005.19;;;-149.77;41.97
60055;BME280;45930;53.514;55.904;2023-04-05T04:59:31;48993.31;;;-149.77;41.82
60055;BME280;45930;53.514;55.904;2023-04-05T05:00:31;49027.00;;;-149.77;41.76
60055;BME280;45930;53.514;55.904;2023-04-05T05:01:32;48997.28;;;-149.77;41.58
60055;BME280;45930;53.514;55.904;2023-04-05T05:02:33;48997.28;;;-149.77;41.24
60055;BME280;45930;53.514;55.904;2023-04-05T05:03:35;49005.19;;;-149.77;40.98
60055;BME280;45930;53.514;55.904;2023-04-05T05:04:38;49019.06;;;-149.77;40.90
60055;BME280;45930;53.514;55.904;2023-04-05T05:05:47;49050.75;;;-149.77;40.69
60055;BME280;45930;53.514;55.904;2023-04-05T05:06:52;49011.16;;;-149.77;40.51
60055;BME280;45930;53.514;55.904;2023-04-05T05:07:54;49034.91;;;-149.77;40.17
60055;BME280;45930;53.514;55.904;2023-04-05T05:08:55;49013.13;;;-149.77;40.16
60055;BME280;45930;53.514;55.904;2023-04-05T05:09:56;49025.00;;;-149.77;39.86
60055;BME280;45930;53.514;55.904;2023-04-05T05:10:56;49040.84;;;-149.77;39.58
60055;BME280;45930;53.514;55.904;2023-04-05T05:11:57;49011.16;;;-149.77;39.48
60055;BME280;45930;53.514;55.904;2023-04-05T05:13:00;48997.28;;;-149.77;39.63
60055;BME280;45930;53.514;55.904;2023-04-05T05:14:01;49005.19;;;-149.77;39.53
60055;BME280;45930;53.514;55.904;2023-04-05T05:15:02;49009.16;;;-149.77;39.04
60055;BME280;45930;53.514;55.904;2023-04-05T05:16:03;48999.25;;;-149.77;39.02
60055;BME280;45930;53.514;55.904;2023-04-05T05:17:05;48993.31;;;-149.77;38.88
60055;BME280;45930;53.514;55.904;2023-04-05T05:18:05;49034.91;;;-149.77;38.54
60055;BME280;45930;53.514;55.904;2023-04-05T05:19:07;49023.03;;;-149.77;38.39
60055;BME280;45930;53.514;55.904;2023-04-05T05:20:09;49030.94;;;-149.77;38.57
60055;BME280;45930;53.514;55.904;2023-04-05T05:21:10;49013.13;;;-149.77;38.27
60055;BME280;45930;53.514;55.904;2023-04-05T05:22:11;49021.06;;;-149.77;38.27
60055;BME280;45930;53.514;55.904;2023-04-05T05:23:12;49017.09;;;-149.77;38.49
60055;BME280;45930;53.514;55.904;2023-04-05T05:24:12;49023.03;;;-149.77;37.96
60055;BME280;45930;53.514;55.904;2023-04-05T05:25:14;49032.94;;;-149.77;38.07
60055;BME280;45930;53.514;55.904;2023-04-05T05:26:14;49019.06;;;-149.77;37.63
60055;BME280;45930;53.514;55.904;2023-04-05T05:27:15;49050.75;;;-149.77;37.63
60055;BME280;45930;53.514;55.904;2023-04-05T05:28:16;49025.00;;;-149.77;37.74
60055;BME280;45930;53.514;55.904;2023-04-05T05:29:17;49013.13;;;-149.77;37.54
60055;BME280;45930;53.514;55.904;2023-04-05T05:30:18;49015.09;;;-149.77;37.59
60055;BME280;45930;53.514;55.904;2023-04-05T05:31:20;49027.00;;;-149.77;37.33